Terminal Aerodrome Forecast
Issued by NWS

Home | Current Version | Previous Version | Text Only | Print | Product List | Glossary On
Versions: 1 2 3 4 5 6 7 8 9 10 11 12 13
000
FTUS42 KTBW 291700
TAFPIE
TAF
KPIE 291720Z 2918/3018 07006KT P6SM FEW250
     FM292000 30007KT P6SM FEW250
     FM300200 VRB03KT P6SM FEW035 FEW250=

USA.gov is the U.S. government's official web portal to all federal, state and local government web resources and services.